Time;durP1;ratioP1;P1;durP2;ratioP2;P2;SDS_P1;SDS_P2;PMS_P1;PMS_P2;Temp;Humidity;BMP_temperature;BMP_pressure;BME280_temperature;BME280_humidity;BME280_pressure;Samples;Min_cycle;Max_cycle;Signal;HPM_P1;HPM_P2
2023/07/14 00:01:26;;;;;;;6.40;1.90;;;;;;;;;;4923804;28;20648;-69
2023/07/14 00:03:53;;;;;;;7.22;2.10;;;;;;;;;;4905222;28;20038;-69
2023/07/14 00:06:20;;;;;;;6.82;1.73;;;;;;;;;;4912860;28;20039;-69
2023/07/14 00:08:47;;;;;;;7.78;2.00;;;;;;;;;;4924938;28;20339;-69
2023/07/14 00:11:16;;;;;;;4.70;1.50;;;;;;;;;;4927118;28;20735;-69
2023/07/14 00:13:42;;;;;;;8.65;2.17;;;;;;;;;;4910915;28;20057;-69
2023/07/14 00:16:16;;;;;;;6.63;1.60;;;;;;;;;;4912956;28;20026;-69
2023/07/14 00:18:43;;;;;;;7.70;1.65;;;;;;;;;;4924472;28;20441;-67
2023/07/14 00:21:15;;;;;;;6.68;1.83;;;;;;;;;;4929348;28;20035;-69
2023/07/14 00:23:41;;;;;;;5.82;1.50;;;;;;;;;;4923579;28;20907;-68
2023/07/14 00:26:14;;;;;;;7.68;1.90;;;;;;;;;;4927043;28;20448;-68
2023/07/14 00:28:42;;;;;;;6.03;1.70;;;;;;;;;;4929388;28;20039;-69
2023/07/14 00:31:12;;;;;;;4.85;1.80;;;;;;;;;;4925810;28;20062;-69
2023/07/14 00:33:39;;;;;;;4.57;1.70;;;;;;;;;;4927211;28;20033;-68
2023/07/14 00:36:06;;;;;;;5.38;1.50;;;;;;;;;;4923161;28;20287;-69
2023/07/14 00:38:34;;;;;;;7.78;1.80;;;;;;;;;;4924925;28;20051;-69
2023/07/14 00:41:01;;;;;;;5.78;1.88;;;;;;;;;;4907564;28;20037;-70
2023/07/14 00:43:29;;;;;;;5.90;1.60;;;;;;;;;;4925614;28;20027;-69
2023/07/14 00:45:56;;;;;;;5.18;1.67;;;;;;;;;;4929355;28;21250;-69
2023/07/14 00:48:24;;;;;;;7.35;2.00;;;;;;;;;;4924247;28;20432;-69
2023/07/14 00:51:02;;;;;;;6.47;1.77;;;;;;;;;;4924306;28;20044;-69
2023/07/14 00:53:32;;;;;;;7.00;1.80;;;;;;;;;;4926885;28;20714;-68
2023/07/14 00:56:02;;;;;;;4.85;1.58;;;;;;;;;;4903850;28;20034;-69
2023/07/14 00:58:30;;;;;;;5.20;1.60;;;;;;;;;;4924547;28;20083;-68
2023/07/14 01:01:04;;;;;;;5.10;1.80;;;;;;;;;;4922055;28;20034;-68
2023/07/14 01:03:30;;;;;;;6.20;1.83;;;;;;;;;;4930175;28;20499;-70
2023/07/14 01:05:59;;;;;;;4.38;1.60;;;;;;;;;;4906752;28;20031;-67
2023/07/14 01:08:26;;;;;;;7.38;1.67;;;;;;;;;;4926025;28;20367;-69
2023/07/14 01:10:53;;;;;;;6.85;1.85;;;;;;;;;;4925451;28;20049;-70
2023/07/14 01:13:20;;;;;;;6.75;1.95;;;;;;;;;;4926220;28;20675;-70
2023/07/14 01:15:47;;;;;;;7.05;2.22;;;;;;;;;;4927819;28;20110;-70
2023/07/14 01:18:13;;;;;;;6.57;2.13;;;;;;;;;;4909696;28;20026;-70
2023/07/14 01:20:39;;;;;;;7.28;2.20;;;;;;;;;;4925337;28;20153;-69
2023/07/14 01:23:21;;;;;;;7.55;1.70;;;;;;;;;;4924537;28;20265;-70
2023/07/14 01:26:03;;;;;;;6.43;2.00;;;;;;;;;;4923228;28;20043;-69
2023/07/14 01:28:29;;;;;;;6.85;1.70;;;;;;;;;;4925711;28;20845;-69
2023/07/14 01:30:55;;;;;;;7.75;1.70;;;;;;;;;;4922937;28;20049;-70
2023/07/14 01:33:21;;;;;;;7.28;1.65;;;;;;;;;;4926287;28;20530;-70
2023/07/14 01:35:58;;;;;;;12.25;2.00;;;;;;;;;;4920684;28;20473;-70
2023/07/14 01:38:24;;;;;;;6.22;1.90;;;;;;;;;;4925183;28;20241;-70
2023/07/14 01:40:50;;;;;;;5.50;1.60;;;;;;;;;;4903892;28;20089;-69
2023/07/14 01:43:17;;;;;;;7.47;2.00;;;;;;;;;;4923928;28;20099;-68
2023/07/14 01:45:49;;;;;;;4.30;1.48;;;;;;;;;;4903858;28;20067;-70
2023/07/14 01:48:17;;;;;;;4.18;1.48;;;;;;;;;;4925453;28;20035;-68
2023/07/14 01:50:45;;;;;;;6.03;1.83;;;;;;;;;;4902542;28;20346;-68
2023/07/14 01:53:20;;;;;;;7.63;2.10;;;;;;;;;;4921394;28;20683;-68
2023/07/14 01:55:47;;;;;;;7.60;1.95;;;;;;;;;;4921310;28;20069;-68
2023/07/14 01:58:16;;;;;;;7.68;2.10;;;;;;;;;;4925403;28;20329;-66
2023/07/14 02:00:43;;;;;;;5.05;1.70;;;;;;;;;;4904196;28;20450;-68
2023/07/14 02:03:12;;;;;;;7.35;2.00;;;;;;;;;;4907328;28;20434;-68
2023/07/14 02:05:38;;;;;;;9.07;2.08;;;;;;;;;;4904698;28;20357;-68
2023/07/14 02:08:05;;;;;;;6.13;1.92;;;;;;;;;;4903969;28;20023;-68
2023/07/14 02:10:32;;;;;;;6.18;2.13;;;;;;;;;;4906737;28;20027;-69
2023/07/14 02:12:59;;;;;;;7.57;2.40;;;;;;;;;;4920143;28;20038;-68
2023/07/14 02:15:32;;;;;;;9.70;2.30;;;;;;;;;;4924879;28;20071;-70
2023/07/14 02:17:59;;;;;;;7.97;2.38;;;;;;;;;;4918882;28;20024;-68
2023/07/14 02:20:27;;;;;;;7.07;2.20;;;;;;;;;;4911467;28;20817;-68
2023/07/14 02:22:55;;;;;;;7.28;2.30;;;;;;;;;;4903624;28;20367;-68
2023/07/14 02:25:22;;;;;;;7.78;2.65;;;;;;;;;;4924059;28;20074;-68
2023/07/14 02:27:48;;;;;;;7.18;2.50;;;;;;;;;;4921263;28;20299;-70
2023/07/14 02:30:16;;;;;;;7.00;2.40;;;;;;;;;;4925566;28;20050;-70
2023/07/14 02:32:46;;;;;;;7.07;2.45;;;;;;;;;;4922709;28;20359;-71
2023/07/14 02:35:14;;;;;;;9.98;3.00;;;;;;;;;;4920947;28;20126;-68
2023/07/14 02:37:51;;;;;;;8.88;2.67;;;;;;;;;;4924094;28;20027;-68
2023/07/14 02:40:17;;;;;;;6.45;2.45;;;;;;;;;;4927538;28;20294;-68
2023/07/14 02:42:43;;;;;;;9.48;2.72;;;;;;;;;;4920135;28;20034;-68
2023/07/14 02:45:09;;;;;;;8.98;2.55;;;;;;;;;;4924653;28;20038;-68
2023/07/14 02:47:39;;;;;;;10.07;2.55;;;;;;;;;;4922125;28;20111;-68
2023/07/14 02:50:06;;;;;;;6.93;2.80;;;;;;;;;;4906601;28;20047;-68
2023/07/14 02:52:32;;;;;;;7.47;2.60;;;;;;;;;;4925250;28;21148;-69
2023/07/14 02:54:58;;;;;;;8.07;2.88;;;;;;;;;;4922495;28;20040;-69
2023/07/14 02:57:24;;;;;;;8.30;2.97;;;;;;;;;;4925567;28;20481;-68
2023/07/14 02:59:50;;;;;;;8.73;2.70;;;;;;;;;;4920932;28;20028;-68
2023/07/14 03:02:16;;;;;;;7.85;2.97;;;;;;;;;;4906676;28;20031;-68
2023/07/14 03:04:43;;;;;;;10.20;3.22;;;;;;;;;;4922522;28;20452;-69
2023/07/14 03:07:09;;;;;;;8.48;3.15;;;;;;;;;;4921930;28;20039;-68
2023/07/14 03:09:35;;;;;;;9.63;3.00;;;;;;;;;;4924028;28;20035;-69
2023/07/14 03:12:01;;;;;;;8.32;2.45;;;;;;;;;;4921119;28;24104;-68
2023/07/14 03:14:27;;;;;;;6.97;2.65;;;;;;;;;;4923462;28;20039;-69
2023/07/14 03:16:53;;;;;;;8.43;2.67;;;;;;;;;;4921849;28;20118;-68
2023/07/14 03:19:19;;;;;;;7.68;2.85;;;;;;;;;;4925645;28;20031;-68
2023/07/14 03:21:46;;;;;;;7.90;3.10;;;;;;;;;;4898858;28;20035;-68
2023/07/14 03:24:12;;;;;;;7.97;3.05;;;;;;;;;;4925547;28;20039;-67
2023/07/14 03:26:38;;;;;;;8.90;3.15;;;;;;;;;;4924182;28;20037;-68
2023/07/14 03:29:04;;;;;;;9.05;3.30;;;;;;;;;;4922481;28;20035;-68
2023/07/14 03:31:30;;;;;;;7.20;2.92;;;;;;;;;;4922020;28;20103;-68
2023/07/14 03:33:56;;;;;;;8.68;3.05;;;;;;;;;;4908625;28;20344;-68
2023/07/14 03:36:23;;;;;;;15.30;2.90;;;;;;;;;;4923749;28;20506;-68
2023/07/14 03:39:09;;;;;;;7.05;2.30;;;;;;;;;;4920872;28;20110;-68
2023/07/14 03:41:35;;;;;;;6.95;1.98;;;;;;;;;;4909934;28;20039;-68
2023/07/14 03:44:02;;;;;;;7.63;2.50;;;;;;;;;;4923102;28;20550;-68
2023/07/14 03:46:28;;;;;;;11.82;2.67;;;;;;;;;;4920453;28;20032;-68
2023/07/14 03:48:55;;;;;;;7.97;2.30;;;;;;;;;;4901760;28;20091;-68
2023/07/14 03:51:21;;;;;;;7.03;2.00;;;;;;;;;;4921207;28;20027;-70
2023/07/14 03:53:47;;;;;;;7.45;2.28;;;;;;;;;;4921257;28;20769;-70
2023/07/14 03:56:13;;;;;;;6.35;2.15;;;;;;;;;;4922556;28;20023;-68
2023/07/14 03:58:41;;;;;;;7.72;2.25;;;;;;;;;;4903700;28;20056;-69
2023/07/14 04:01:07;;;;;;;5.68;2.08;;;;;;;;;;4903986;28;20654;-68
2023/07/14 04:03:34;;;;;;;6.97;2.17;;;;;;;;;;4905520;28;20035;-68
2023/07/14 04:06:00;;;;;;;6.35;2.22;;;;;;;;;;4919113;28;20043;-68
2023/07/14 04:08:26;;;;;;;8.00;2.72;;;;;;;;;;4923066;28;20035;-68
2023/07/14 04:10:53;;;;;;;9.60;2.53;;;;;;;;;;4918199;28;20048;-68
2023/07/14 04:13:19;;;;;;;6.25;2.33;;;;;;;;;;4919819;28;20045;-68
2023/07/14 04:15:45;;;;;;;7.78;2.58;;;;;;;;;;4912433;28;20027;-68
2023/07/14 04:18:12;;;;;;;7.25;2.53;;;;;;;;;;4919855;28;20450;-68
2023/07/14 04:20:38;;;;;;;6.53;2.67;;;;;;;;;;4918362;28;20062;-68
2023/07/14 04:23:05;;;;;;;9.63;2.53;;;;;;;;;;4916419;28;20030;-68
2023/07/14 04:25:31;;;;;;;9.13;2.60;;;;;;;;;;4922086;28;20025;-68
2023/07/14 04:27:57;;;;;;;9.13;2.70;;;;;;;;;;4920062;28;20031;-70
2023/07/14 04:30:23;;;;;;;9.38;2.50;;;;;;;;;;4906147;28;20308;-70
2023/07/14 04:32:50;;;;;;;9.40;2.80;;;;;;;;;;4920711;28;20460;-70
2023/07/14 04:35:16;;;;;;;9.75;2.75;;;;;;;;;;4908384;29;20402;-71
2023/07/14 04:37:42;;;;;;;11.38;3.03;;;;;;;;;;4920390;28;20080;-70
2023/07/14 04:40:09;;;;;;;10.85;3.03;;;;;;;;;;4910478;28;20110;-69
2023/07/14 04:42:36;;;;;;;9.63;3.20;;;;;;;;;;4908274;28;20066;-70
2023/07/14 04:45:02;;;;;;;8.15;2.92;;;;;;;;;;4905893;28;20672;-70
2023/07/14 04:47:28;;;;;;;11.10;3.08;;;;;;;;;;4909388;28;20134;-70
2023/07/14 04:49:54;;;;;;;8.32;2.75;;;;;;;;;;4924605;28;20599;-69
2023/07/14 04:52:20;;;;;;;8.23;2.97;;;;;;;;;;4926346;28;20355;-69
2023/07/14 04:54:46;;;;;;;9.13;3.22;;;;;;;;;;4925422;28;20073;-69
2023/07/14 04:57:13;;;;;;;8.35;3.08;;;;;;;;;;4927786;28;20034;-69
2023/07/14 04:59:39;;;;;;;10.57;3.10;;;;;;;;;;4908713;28;20030;-69
2023/07/14 05:02:05;;;;;;;10.55;3.10;;;;;;;;;;4925949;28;20030;-69
2023/07/14 05:04:32;;;;;;;9.77;3.00;;;;;;;;;;4911845;28;20128;-69
2023/07/14 05:06:58;;;;;;;9.52;2.42;;;;;;;;;;4927232;28;20058;-69
2023/07/14 05:09:25;;;;;;;8.55;2.92;;;;;;;;;;4926929;28;20529;-69
2023/07/14 05:11:51;;;;;;;8.63;2.90;;;;;;;;;;4912715;28;20044;-69
2023/07/14 05:14:17;;;;;;;10.95;2.50;;;;;;;;;;4926524;28;20077;-69
2023/07/14 05:16:43;;;;;;;11.40;3.42;;;;;;;;;;4921702;28;20724;-69
2023/07/14 05:19:09;;;;;;;11.60;3.20;;;;;;;;;;4927833;28;20062;-70
2023/07/14 05:21:36;;;;;;;10.25;3.40;;;;;;;;;;4926308;28;20316;-69
2023/07/14 05:24:02;;;;;;;9.35;3.40;;;;;;;;;;4926134;28;20460;-69
2023/07/14 05:26:29;;;;;;;9.68;2.65;;;;;;;;;;4909036;28;20031;-69
2023/07/14 05:28:55;;;;;;;8.23;3.00;;;;;;;;;;4927507;28;20446;-69
2023/07/14 05:31:22;;;;;;;11.32;2.65;;;;;;;;;;4926612;28;20512;-69
2023/07/14 05:33:48;;;;;;;9.68;2.70;;;;;;;;;;4919342;28;20031;-69
2023/07/14 05:36:14;;;;;;;10.65;2.80;;;;;;;;;;4926788;28;20026;-70
2023/07/14 05:38:41;;;;;;;9.73;2.50;;;;;;;;;;4912516;28;20035;-69
2023/07/14 05:41:08;;;;;;;8.43;2.22;;;;;;;;;;4905678;28;20469;-70
2023/07/14 05:43:34;;;;;;;8.65;2.35;;;;;;;;;;4909572;28;20744;-69
2023/07/14 05:46:00;;;;;;;9.07;2.40;;;;;;;;;;4924327;28;20031;-69
2023/07/14 05:48:26;;;;;;;7.15;2.22;;;;;;;;;;4927099;28;20035;-68
2023/07/14 05:50:53;;;;;;;8.40;2.45;;;;;;;;;;4919985;28;20089;-68
2023/07/14 05:53:19;;;;;;;4.82;1.75;;;;;;;;;;4897623;28;21259;-68
2023/07/14 05:55:45;;;;;;;8.27;1.70;;;;;;;;;;4882380;28;20038;-69
2023/07/14 05:58:12;;;;;;;5.68;1.58;;;;;;;;;;4922335;28;20409;-68
2023/07/14 06:00:42;;;;;;;6.35;1.70;;;;;;;;;;4930037;28;20030;-69
2023/07/14 06:03:13;;;;;;;6.32;1.80;;;;;;;;;;4913835;28;20416;-69
2023/07/14 06:05:40;;;;;;;14.13;1.83;;;;;;;;;;4931209;28;20133;-70
2023/07/14 06:08:06;;;;;;;6.97;1.83;;;;;;;;;;4910353;28;20023;-70
2023/07/14 06:10:34;;;;;;;5.80;1.58;;;;;;;;;;4912540;28;20122;-68
2023/07/14 06:13:00;;;;;;;9.85;2.20;;;;;;;;;;4915156;28;20072;-70
2023/07/14 06:15:28;;;;;;;7.32;1.80;;;;;;;;;;4932288;28;20063;-70
2023/07/14 06:17:54;;;;;;;8.55;2.70;;;;;;;;;;4932871;28;20194;-70
2023/07/14 06:20:20;;;;;;;9.85;3.03;;;;;;;;;;4914156;28;20035;-69
2023/07/14 06:22:48;;;;;;;9.55;4.90;;;;;;;;;;4933022;28;20461;-69
2023/07/14 06:25:14;;;;;;;7.03;2.60;;;;;;;;;;4935389;28;20039;-68
2023/07/14 06:27:40;;;;;;;8.07;2.78;;;;;;;;;;4933943;28;20101;-69
2023/07/14 06:30:08;;;;;;;8.60;3.15;;;;;;;;;;4919085;28;20530;-68
2023/07/14 06:32:34;;;;;;;7.97;2.30;;;;;;;;;;4870633;28;20035;-69
2023/07/14 06:35:01;;;;;;;12.18;6.32;;;;;;;;;;4869823;28;20032;-69
2023/07/14 06:37:27;;;;;;;9.10;3.30;;;;;;;;;;4892694;28;20889;-69
2023/07/14 06:39:54;;;;;;;9.77;2.58;;;;;;;;;;4891824;28;20086;-68
2023/07/14 06:42:20;;;;;;;8.68;4.30;;;;;;;;;;4886169;28;20402;-68
2023/07/14 06:44:46;;;;;;;9.30;2.72;;;;;;;;;;4885039;28;20038;-68
2023/07/14 06:47:14;;;;;;;12.10;6.30;;;;;;;;;;4883266;28;20498;-67
2023/07/14 06:49:41;;;;;;;7.78;3.10;;;;;;;;;;4875264;28;20823;-68
2023/07/14 06:52:07;;;;;;;7.45;2.30;;;;;;;;;;4882781;29;20033;-68
2023/07/14 06:54:33;;;;;;;8.00;2.28;;;;;;;;;;4863678;29;20529;-68
2023/07/14 06:57:00;;;;;;;8.27;2.45;;;;;;;;;;4882673;29;20055;-68
2023/07/14 06:59:26;;;;;;;5.95;1.77;;;;;;;;;;4882451;28;20042;-68
2023/07/14 07:01:53;;;;;;;9.77;2.58;;;;;;;;;;4853975;29;20821;-68
2023/07/14 07:04:19;;;;;;;7.80;2.28;;;;;;;;;;4857196;29;20031;-69
2023/07/14 07:06:45;;;;;;;6.18;1.67;;;;;;;;;;4867538;29;20028;-68
2023/07/14 07:09:11;;;;;;;7.68;1.63;;;;;;;;;;4921194;28;20035;-69
2023/07/14 07:11:37;;;;;;;9.82;1.55;;;;;;;;;;4917665;29;20156;-70
2023/07/14 07:14:03;;;;;;;7.00;1.77;;;;;;;;;;4915964;28;20031;-67
2023/07/14 07:16:29;;;;;;;6.95;1.58;;;;;;;;;;4916198;29;20271;-68
2023/07/14 07:18:57;;;;;;;8.07;1.70;;;;;;;;;;4899753;29;20241;-68
2023/07/14 07:21:23;;;;;;;5.55;1.70;;;;;;;;;;4916067;28;20036;-68
2023/07/14 07:23:49;;;;;;;5.63;1.90;;;;;;;;;;4916597;29;20023;-69
2023/07/14 07:26:15;;;;;;;9.00;1.70;;;;;;;;;;4917845;28;20027;-69
2023/07/14 07:28:44;;;;;;;5.20;1.55;;;;;;;;;;4904443;29;20035;-68
2023/07/14 07:31:11;;;;;;;7.03;1.55;;;;;;;;;;4900040;29;20471;-69
2023/07/14 07:33:42;;;;;;;6.60;1.52;;;;;;;;;;4919355;29;20024;-69
2023/07/14 07:36:17;;;;;;;5.65;1.60;;;;;;;;;;4900409;29;20046;-68
2023/07/14 07:38:48;;;;;;;6.63;1.73;;;;;;;;;;4912866;29;20035;-69
2023/07/14 07:41:15;;;;;;;6.72;2.33;;;;;;;;;;4916244;28;20362;-69
2023/07/14 07:43:41;;;;;;;6.18;1.50;;;;;;;;;;4919621;29;20328;-68
2023/07/14 07:46:08;;;;;;;6.95;1.60;;;;;;;;;;4915339;28;20038;-69
2023/07/14 07:48:35;;;;;;;6.70;1.30;;;;;;;;;;4922294;28;20046;-68
2023/07/14 07:51:04;;;;;;;6.38;1.80;;;;;;;;;;4928720;28;20063;-69
2023/07/14 07:53:30;;;;;;;6.32;1.75;;;;;;;;;;4932580;28;20031;-69
2023/07/14 07:55:57;;;;;;;10.10;1.80;;;;;;;;;;4927659;28;20106;-69
2023/07/14 07:58:26;;;;;;;7.82;1.67;;;;;;;;;;4930641;28;20497;-70
2023/07/14 08:00:56;;;;;;;7.97;1.83;;;;;;;;;;4927761;28;20031;-67
2023/07/14 08:03:22;;;;;;;6.65;1.77;;;;;;;;;;4928190;28;20039;-68
2023/07/14 08:05:49;;;;;;;6.00;1.73;;;;;;;;;;4928119;28;20035;-69
2023/07/14 08:08:15;;;;;;;7.40;1.90;;;;;;;;;;4936986;28;20054;-70
2023/07/14 08:10:46;;;;;;;6.65;1.88;;;;;;;;;;4935406;28;20027;-69
2023/07/14 08:13:13;;;;;;;7.28;1.95;;;;;;;;;;4937445;28;20030;-69
2023/07/14 08:15:40;;;;;;;6.35;1.75;;;;;;;;;;4932439;28;20033;-70
2023/07/14 08:18:07;;;;;;;6.53;1.80;;;;;;;;;;4930020;28;20023;-69
2023/07/14 08:20:37;;;;;;;8.68;2.35;;;;;;;;;;4932073;28;20043;-69
2023/07/14 08:23:04;;;;;;;8.43;2.10;;;;;;;;;;4934002;28;20508;-69
2023/07/14 08:25:30;;;;;;;10.52;2.20;;;;;;;;;;4917668;28;20145;-69
2023/07/14 08:27:56;;;;;;;10.50;2.30;;;;;;;;;;4933374;28;20647;-69
2023/07/14 08:30:23;;;;;;;6.68;2.10;;;;;;;;;;4933380;28;20773;-69
2023/07/14 08:32:49;;;;;;;7.68;2.63;;;;;;;;;;4929827;28;20059;-69
2023/07/14 08:35:19;;;;;;;7.45;2.03;;;;;;;;;;4932119;28;21485;-69
2023/07/14 08:37:46;;;;;;;8.23;2.17;;;;;;;;;;4917250;28;20047;-69
2023/07/14 08:40:13;;;;;;;8.20;1.90;;;;;;;;;;4918903;28;20035;-69
2023/07/14 08:42:46;;;;;;;8.18;2.00;;;;;;;;;;4931787;28;20481;-68
2023/07/14 08:45:14;;;;;;;9.48;2.03;;;;;;;;;;4916354;28;20035;-69
2023/07/14 08:47:53;;;;;;;7.22;1.90;;;;;;;;;;4915093;28;20035;-69
2023/07/14 08:50:21;;;;;;;7.45;1.80;;;;;;;;;;4935770;28;20089;-69
2023/07/14 08:52:50;;;;;;;8.10;1.90;;;;;;;;;;4930884;28;20585;-69
2023/07/14 08:55:16;;;;;;;7.18;1.98;;;;;;;;;;4934849;28;20031;-69
2023/07/14 08:57:45;;;;;;;9.18;2.20;;;;;;;;;;4931153;28;20062;-68
2023/07/14 09:00:17;;;;;;;15.13;2.90;;;;;;;;;;4933362;28;20336;-69
2023/07/14 09:03:02;;;;;;;14.77;2.72;;;;;;;;;;4928582;28;20034;-69
2023/07/14 09:05:29;;;;;;;8.93;2.10;;;;;;;;;;4919814;28;20089;-69
2023/07/14 09:07:56;;;;;;;7.78;2.35;;;;;;;;;;4932481;28;20459;-68
2023/07/14 09:10:33;;;;;;;7.72;2.30;;;;;;;;;;4929662;28;20031;-68
2023/07/14 09:13:19;;;;;;;7.93;2.10;;;;;;;;;;4936017;28;20118;-68
2023/07/14 09:15:46;;;;;;;9.27;2.03;;;;;;;;;;4930231;28;20019;-68
2023/07/14 09:18:21;;;;;;;7.65;2.15;;;;;;;;;;4928852;28;20035;-68
2023/07/14 09:20:54;;;;;;;5.57;1.87;;;;;;;;;;4930563;28;20035;-68
2023/07/14 09:23:23;;;;;;;7.35;2.17;;;;;;;;;;4930642;28;20031;-68
2023/07/14 09:26:16;;;;;;;9.23;2.17;;;;;;;;;;4933613;28;20390;-68
2023/07/14 09:28:47;;;;;;;8.77;2.22;;;;;;;;;;4929509;28;20063;-70
2023/07/14 09:31:20;;;;;;;9.57;2.40;;;;;;;;;;4930618;28;20363;-69
2023/07/14 09:33:48;;;;;;;8.23;2.38;;;;;;;;;;4931833;28;20346;-70
2023/07/14 09:36:14;;;;;;;8.95;2.22;;;;;;;;;;4934233;28;20140;-68
2023/07/14 09:38:46;;;;;;;8.45;2.20;;;;;;;;;;4935798;28;20505;-68
2023/07/14 09:41:16;;;;;;;8.18;2.28;;;;;;;;;;4933782;28;20042;-69
2023/07/14 09:43:43;;;;;;;11.82;2.70;;;;;;;;;;4933388;28;20023;-69
2023/07/14 09:46:10;;;;;;;8.65;2.10;;;;;;;;;;4913121;28;20039;-68
2023/07/14 09:48:42;;;;;;;6.70;2.05;;;;;;;;;;4932483;28;20054;-70
2023/07/14 09:51:16;;;;;;;8.48;2.10;;;;;;;;;;4930603;28;20046;-71
2023/07/14 09:54:03;;;;;;;7.28;2.15;;;;;;;;;;4930417;28;20450;-69
2023/07/14 09:56:35;;;;;;;6.07;2.00;;;;;;;;;;4924108;28;20039;-69
2023/07/14 09:59:03;;;;;;;8.68;2.20;;;;;;;;;;4935079;28;21572;-69
2023/07/14 10:01:30;;;;;;;7.22;2.00;;;;;;;;;;4934348;28;20921;-69
2023/07/14 10:03:59;;;;;;;9.88;2.10;;;;;;;;;;4913757;28;20209;-69
2023/07/14 10:06:26;;;;;;;8.15;2.05;;;;;;;;;;4918065;28;20218;-70
2023/07/14 10:08:57;;;;;;;8.48;2.17;;;;;;;;;;4929029;28;20042;-69
2023/07/14 10:11:23;;;;;;;10.98;2.40;;;;;;;;;;4935551;28;20039;-71
2023/07/14 10:13:53;;;;;;;9.13;2.58;;;;;;;;;;4929103;28;20398;-69
2023/07/14 10:16:21;;;;;;;8.48;2.33;;;;;;;;;;4932092;28;20510;-69
2023/07/14 10:18:47;;;;;;;8.70;2.20;;;;;;;;;;4924017;28;20911;-70
2023/07/14 10:21:16;;;;;;;8.80;2.20;;;;;;;;;;4931927;28;20046;-70
2023/07/14 10:23:56;;;;;;;9.32;2.65;;;;;;;;;;4932142;28;20485;-69
2023/07/14 10:26:23;;;;;;;9.27;2.60;;;;;;;;;;4931922;28;20028;-70
2023/07/14 10:28:51;;;;;;;8.15;2.00;;;;;;;;;;4928976;28;20362;-70
2023/07/14 10:31:20;;;;;;;9.63;2.35;;;;;;;;;;4930598;28;20032;-69
2023/07/14 10:34:02;;;;;;;7.68;2.30;;;;;;;;;;4928134;28;20038;-68
2023/07/14 10:36:33;;;;;;;10.35;2.80;;;;;;;;;;4927706;28;20031;-69
2023/07/14 10:39:02;;;;;;;7.70;2.60;;;;;;;;;;4931373;28;20070;-69
2023/07/14 10:41:29;;;;;;;9.00;2.22;;;;;;;;;;4932689;28;21146;-69
2023/07/14 10:44:09;;;;;;;7.80;2.08;;;;;;;;;;4930769;28;20109;-67
2023/07/14 10:46:42;;;;;;;8.15;2.70;;;;;;;;;;4932993;28;20026;-67
2023/07/14 10:49:33;;;;;;;9.63;2.47;;;;;;;;;;4912632;28;20466;-67
2023/07/14 10:52:03;;;;;;;7.53;2.33;;;;;;;;;;4929045;28;20455;-65
2023/07/14 10:54:45;;;;;;;7.93;2.50;;;;;;;;;;4930022;28;20035;-66
2023/07/14 10:57:11;;;;;;;11.02;2.28;;;;;;;;;;4930347;28;20034;-67
2023/07/14 10:59:48;;;;;;;9.30;2.40;;;;;;;;;;4931590;28;20034;-67
2023/07/14 11:02:20;;;;;;;9.93;2.50;;;;;;;;;;4931863;28;20138;-67
2023/07/14 11:04:49;;;;;;;7.95;2.70;;;;;;;;;;4932590;28;20035;-68
2023/07/14 11:07:17;;;;;;;10.82;2.72;;;;;;;;;;4918038;28;20451;-68
2023/07/14 11:09:43;;;;;;;10.55;2.45;;;;;;;;;;4914282;28;20095;-67
2023/07/14 11:12:34;;;;;;;7.78;2.15;;;;;;;;;;4933833;28;20077;-67
2023/07/14 11:15:14;;;;;;;10.85;2.17;;;;;;;;;;4904567;28;20833;-65
2023/07/14 11:17:51;;;;;;;8.23;2.40;;;;;;;;;;4929271;28;20502;-66
2023/07/14 11:20:29;;;;;;;10.02;2.40;;;;;;;;;;4929442;28;20031;-66
2023/07/14 11:23:01;;;;;;;7.78;2.10;;;;;;;;;;4923701;28;20035;-65
2023/07/14 11:25:38;;;;;;;9.10;2.30;;;;;;;;;;4933387;28;20035;-66
2023/07/14 11:28:23;;;;;;;8.75;2.42;;;;;;;;;;4912628;28;20146;-66
2023/07/14 11:30:51;;;;;;;8.75;2.40;;;;;;;;;;4926081;28;20506;-66
2023/07/14 11:33:39;;;;;;;8.65;2.45;;;;;;;;;;4911312;28;20378;-67
2023/07/14 11:36:05;;;;;;;8.60;2.28;;;;;;;;;;4929644;28;20446;-66
2023/07/14 11:38:35;;;;;;;8.90;2.30;;;;;;;;;;4932242;28;20087;-66
2023/07/14 11:41:01;;;;;;;8.82;2.22;;;;;;;;;;4926400;28;20554;-66
2023/07/14 11:43:29;;;;;;;7.93;2.15;;;;;;;;;;4935145;28;20067;-65
2023/07/14 11:46:06;;;;;;;9.25;2.47;;;;;;;;;;4927407;28;20027;-67
2023/07/14 11:48:34;;;;;;;6.70;2.25;;;;;;;;;;4934336;28;20035;-66
2023/07/14 11:51:19;;;;;;;8.20;2.30;;;;;;;;;;4926176;28;20512;-66
2023/07/14 11:54:03;;;;;;;8.02;2.20;;;;;;;;;;4929819;28;20023;-66
2023/07/14 11:56:30;;;;;;;8.05;2.10;;;;;;;;;;4939299;28;20050;-66
2023/07/14 11:59:06;;;;;;;8.27;2.17;;;;;;;;;;4933219;28;20595;-66
2023/07/14 12:01:32;;;;;;;10.80;2.10;;;;;;;;;;4934478;28;20409;-66
2023/07/14 12:04:17;;;;;;;7.97;2.28;;;;;;;;;;4930851;28;20108;-66
2023/07/14 12:06:48;;;;;;;10.98;2.70;;;;;;;;;;4930196;28;20035;-66
2023/07/14 12:09:18;;;;;;;9.95;2.30;;;;;;;;;;4933722;28;20022;-66
2023/07/14 12:11:46;;;;;;;10.15;2.45;;;;;;;;;;4915968;28;20355;-66
2023/07/14 12:14:25;;;;;;;9.02;2.50;;;;;;;;;;4936362;28;20078;-66
2023/07/14 12:16:51;;;;;;;8.48;2.15;;;;;;;;;;4927877;28;20160;-66
2023/07/14 12:19:32;;;;;;;7.50;2.28;;;;;;;;;;4917137;28;20034;-66
2023/07/14 12:21:58;;;;;;;12.85;2.25;;;;;;;;;;4909254;28;20150;-66
2023/07/14 12:24:29;;;;;;;5.97;1.90;;;;;;;;;;4929064;28;20031;-66
2023/07/14 12:27:06;;;;;;;8.60;2.08;;;;;;;;;;4909783;28;20126;-66
2023/07/14 12:29:32;;;;;;;10.30;2.28;;;;;;;;;;4929947;28;20433;-66
2023/07/14 12:31:58;;;;;;;9.43;2.20;;;;;;;;;;4923789;28;20512;-66
2023/07/14 12:34:25;;;;;;;9.18;2.00;;;;;;;;;;4910893;28;20458;-67
2023/07/14 12:36:52;;;;;;;9.10;2.20;;;;;;;;;;4930648;28;20159;-66
2023/07/14 12:39:18;;;;;;;9.70;2.28;;;;;;;;;;4933820;28;20031;-66
2023/07/14 12:41:50;;;;;;;9.52;2.30;;;;;;;;;;4908199;28;20150;-66
2023/07/14 12:44:23;;;;;;;11.23;2.50;;;;;;;;;;4917527;28;20030;-66
2023/07/14 12:46:57;;;;;;;8.25;2.33;;;;;;;;;;4925654;28;20075;-66
2023/07/14 12:49:23;;;;;;;10.75;2.20;;;;;;;;;;4925071;28;20051;-66
2023/07/14 12:51:50;;;;;;;9.10;2.10;;;;;;;;;;4913964;29;20028;-67
2023/07/14 12:54:26;;;;;;;10.20;2.22;;;;;;;;;;4900752;29;20126;-66
2023/07/14 12:56:59;;;;;;;6.32;1.98;;;;;;;;;;4909854;29;21101;-67
2023/07/14 12:59:25;;;;;;;8.55;2.00;;;;;;;;;;4898279;29;20312;-66
2023/07/14 13:01:52;;;;;;;9.57;2.10;;;;;;;;;;4911926;29;20727;-66
2023/07/14 13:04:20;;;;;;;9.02;2.00;;;;;;;;;;4912066;29;20398;-66
2023/07/14 13:06:47;;;;;;;7.57;2.13;;;;;;;;;;4896794;29;20031;-67
2023/07/14 13:09:24;;;;;;;8.57;2.38;;;;;;;;;;4917580;29;20108;-66
2023/07/14 13:11:51;;;;;;;11.57;2.08;;;;;;;;;;4892792;29;20245;-65
2023/07/14 13:14:22;;;;;;;8.45;2.10;;;;;;;;;;4919390;29;20034;-66
2023/07/14 13:16:51;;;;;;;9.10;2.20;;;;;;;;;;4906163;29;20032;-64
2023/07/14 13:19:38;;;;;;;7.30;2.00;;;;;;;;;;4891606;29;20027;-67
2023/07/14 13:22:05;;;;;;;7.15;2.13;;;;;;;;;;4910715;29;20050;-67
2023/07/14 13:24:32;;;;;;;7.05;1.85;;;;;;;;;;4918535;29;20082;-67
2023/07/14 13:27:09;;;;;;;6.35;1.75;;;;;;;;;;4896306;29;20418;-67
2023/07/14 13:29:36;;;;;;;8.13;1.90;;;;;;;;;;4897708;29;20038;-67
2023/07/14 13:32:22;;;;;;;7.55;2.00;;;;;;;;;;4915957;29;22780;-67
2023/07/14 13:34:59;;;;;;;5.78;1.80;;;;;;;;;;4893724;29;20131;-67
2023/07/14 13:37:26;;;;;;;6.82;2.20;;;;;;;;;;4894766;29;20059;-67
2023/07/14 13:40:01;;;;;;;6.28;1.83;;;;;;;;;;4890961;29;20143;-67
2023/07/14 13:42:34;;;;;;;9.13;2.25;;;;;;;;;;4914812;29;20058;-67
2023/07/14 13:45:10;;;;;;;6.95;2.00;;;;;;;;;;4916063;29;20094;-67
2023/07/14 13:47:43;;;;;;;6.85;1.75;;;;;;;;;;4897987;29;20181;-67
2023/07/14 13:50:09;;;;;;;8.95;1.98;;;;;;;;;;4909405;28;20043;-68
2023/07/14 13:52:36;;;;;;;8.82;2.20;;;;;;;;;;4928728;28;20462;-66
2023/07/14 13:55:04;;;;;;;6.43;1.92;;;;;;;;;;4909719;28;20769;-66
2023/07/14 13:57:30;;;;;;;11.20;2.17;;;;;;;;;;4926051;28;20031;-66
2023/07/14 13:59:57;;;;;;;9.70;2.05;;;;;;;;;;4924782;28;20059;-66
2023/07/14 14:02:38;;;;;;;8.80;1.80;;;;;;;;;;4913600;28;20101;-66
2023/07/14 14:05:15;;;;;;;8.93;2.10;;;;;;;;;;4925648;28;20042;-66
2023/07/14 14:07:41;;;;;;;8.52;1.90;;;;;;;;;;4911152;28;20097;-65
2023/07/14 14:10:11;;;;;;;7.57;2.15;;;;;;;;;;4928424;28;20209;-65
2023/07/14 14:12:38;;;;;;;7.90;2.20;;;;;;;;;;4909871;28;20611;-67
2023/07/14 14:15:05;;;;;;;6.95;1.90;;;;;;;;;;4924522;28;20178;-68
2023/07/14 14:17:39;;;;;;;6.75;2.10;;;;;;;;;;4926529;28;20345;-67
2023/07/14 14:20:07;;;;;;;7.25;2.15;;;;;;;;;;4923837;28;20413;-67
2023/07/14 14:22:34;;;;;;;9.57;2.20;;;;;;;;;;4930472;28;20117;-67
2023/07/14 14:25:00;;;;;;;7.55;2.03;;;;;;;;;;4924336;28;20043;-67
2023/07/14 14:27:26;;;;;;;7.57;2.13;;;;;;;;;;4927769;28;20321;-67
2023/07/14 14:29:52;;;;;;;7.10;2.00;;;;;;;;;;4925012;28;20137;-67
2023/07/14 14:32:20;;;;;;;9.05;2.10;;;;;;;;;;4926618;28;20042;-67
2023/07/14 14:34:46;;;;;;;8.05;1.85;;;;;;;;;;4924071;28;20028;-66
2023/07/14 14:37:13;;;;;;;10.63;2.17;;;;;;;;;;4930289;28;20035;-67
2023/07/14 14:39:40;;;;;;;6.85;1.95;;;;;;;;;;4925558;28;20031;-66
2023/07/14 14:42:13;;;;;;;6.18;2.17;;;;;;;;;;4927422;28;20095;-67
2023/07/14 14:44:39;;;;;;;5.70;2.03;;;;;;;;;;4912636;28;20027;-67
2023/07/14 14:47:05;;;;;;;9.65;1.80;;;;;;;;;;4905649;28;20665;-67
2023/07/14 14:49:31;;;;;;;7.28;1.95;;;;;;;;;;4920907;28;20055;-67
2023/07/14 14:51:57;;;;;;;8.77;2.35;;;;;;;;;;4916085;29;20040;-67